aviador You're here:

DIAP Decoded Metar

ABIDJAN in IVORY COAST
Report Time2017-08-21 23:30:00
UTC Time2017-08-21 23:56:22
Flight Rules vfr VFR
Wind210° at 05 kt
W.Decomp.*RWY 21: 5.0 kt HW 0.4 kt RCW
W.Rank210° ranks 3
Current wind is below 210° avg. (7.6)
Visibility9999 m
Phenomena:N/A
Clouds:Few 012 Hf
Broken 040 Hf
Expected CloudBase > 400 ft AGL from Temp-Dew spread
Ceiling4,000 ft
Temp23°C (ISA +8)
Dew Point22°C (94% RH)
QNH1015 hPa
Density Alt1,243 ft
Elevation26 ft
Report Wrong Elevation
Raw Report
METAR DIAP 212330Z 21005KT 9999 FEW012 BKN040 23/22 Q1015 NOSIG=

Extra information for DIAP:More info

Metar Taf Metar & Taf Last 4 Metars F.Rules Stats Wind Profile Meteogram Temp Stats Airport Information Weather charts Add Link Nearby VenuesMetar ALERT Operation Metar Decoded Social comments